Decoded Metar for LFCK (CASTRES in FRANCE) (IATA:DCM) | Meteo·Mobile Aviation Weather
aviador You're here:

LFCK Decoded Metar

CASTRES in FRANCE
Report Time2018-12-14 11:30:00
UTC Time2018-12-14 11:54:54
Flight Rules mvfr MVFR
Wind300° at 09 kt
W.Decomp.*RWY 32: 8.5 kt HW 3.1 kt LCW
W.Rank300° ranks 2
Current wind is below 300° avg. (9.9)
Visibility9999 m
Phenomena:N/A
Clouds:Broken 011 Hf
Overcast 018 Hf
Expected CloudBase > 400 ft AGL from Temp-Dew spread
Ceiling1,100 ft
Temp07°C
Dew Point06°C (93% RH)
AAT2.8°C
QNH1018 hPa
Raw Report
METAR LFCK 141130Z AUTO 30009KT 9999 BKN011 OVC018 07/06 Q1018
NOSIG=

Extra information for LFCK:More info

Metar Taf Metar & Taf Last 4 Metars F.Rules Stats Wind Profile Meteogram Temp Stats Airport Information Weather charts Add Link Nearby VenuesMetar ALERT Operation Metar Decoded Social comments